Southgate, MI (48195)

9:33 PM EST on February 12, 2016 (GMT -0500)
Southgate | | Change Station
CLOSE
Current Station
Personal Weather Station
Location: Southgate, MI
Elevation: 587 ft
Nearby Weather Stations

Elev 587 ft 42.21 °N, 83.19 °W | Updated 1 minute ago

Mostly Cloudy
Mostly Cloudy
14.4 °F
Feels Like 2 °F
N
10.0
Wind Variable Wind from NNW
Gusts 22.0 mph

Today
High -- | Low -- °F
--% Chance of Precip.
Yesterday
High -- | Low -- °F
Precip. -- in
Pressure 30.15 in
Visibility 10.0 miles
Clouds Few 2500 ft
Mostly Cloudy 4000 ft
Mostly Cloudy 5500 ft
Windchill 2 °F
Dew Point 4 °F
Humidity 64%
Rainfall 0.00 in
Snow Depth Not available.
7:33 AM 6:00 PM
Waxing Crescent, 26% visible
METAR KDTW 130153Z 34014G24KT 10SM FEW025 BKN040 BKN055 M09/M17 A3012 RMK AO2 SNB21E46 SLP210 P0000 T10941172
Pressure 30.15 in
Visibility 10.0 miles
Clouds Few 2500 ft
Mostly Cloudy 4000 ft
Mostly Cloudy 5500 ft
Windchill 2 °F
Dew Point 4 °F
Humidity 64%
Rainfall 0.00 in
Snow Depth Not available.
7:33 AM 6:00 PM
Waxing Crescent, 26% visible
METAR KDTW 130153Z 34014G24KT 10SM FEW025 BKN040 BKN055 M09/M17 A3012 RMK AO2 SNB21E46 SLP210 P0000 T10941172

10-Day Weather Forecast

Almanac

Astronomy

Feb. 12, 2016 Rise Set
Actual Time
Civil Twilight
Nautical Twilight
Astronomical Twilight
Moon
Length of Visible Light
Length of Day
Tomorrow will be .
, % of the Moon is Illuminated

Today's Extremes

State Highs State Lows

Community

WunderPhotos

Upload Photos

1,892,464 photos uploaded!

WunderBlog® & News

Nearby

Air Quality

  Air Quality AQ Index Pollutant
Not available.

Snow Depth

Station Depth Elevation

Earthquake Activity

City Distance Mag. Time & Date
Minimum magnitude displayed is 2.5.

Coastal Water Temperatures

Place Temperature

Stations

Nearby Weather Stations

Station Location Temp. Windchill Dew Point Humidity Wind Precip. Elev Updated Type
                   

Watches & Warnings

There are currently no watches in effect.